Time;durP1;ratioP1;P1;durP2;ratioP2;P2;SDS_P1;SDS_P2;PMS_P1;PMS_P2;Temp;Humidity;BMP_temperature;BMP_pressure;BME280_temperature;BME280_humidity;BME280_pressure;Samples;Min_cycle;Max_cycle;Signal;HPM_P1;HPM_P2
2021/04/05 00:00:28;;;;;;;;;;;;;;;10.51;45.63;100474.38;5127880;27;97027;-80
2021/04/05 00:02:58;;;;;;;;;;;;;;;10.52;45.67;100473.47;5117230;27;98963;-80
2021/04/05 00:05:26;;;;;;;;;;;;;;;10.62;45.53;100464.25;5127760;27;99409;-81
2021/04/05 00:07:54;;;;;;;;;;;;;;;10.57;45.75;100479.41;5127445;27;96966;-80
2021/04/05 00:10:25;;;;;;;;;;;;;;;10.43;45.83;100476.47;5131208;27;97026;-80
2021/04/05 00:12:51;;;;;;;;;;;;;;;10.43;45.98;100465.91;5127697;27;99347;-79
2021/04/05 00:15:18;;;;;;;;;;;;;;;10.54;45.77;100457.56;5126200;27;99055;-79
2021/04/05 00:17:45;;;;;;;;;;;;;;;10.33;46.27;100444.28;5132803;27;97234;-80
2021/04/05 00:20:16;;;;;;;;;;;;;;;10.36;45.97;100448.59;5123699;27;96814;-79
2021/04/05 00:22:42;;;;;;;;;;;;;;;9.85;47.27;100446.97;5111601;27;98227;-80
2021/04/05 00:25:15;;;;;;;;;;;;;;;10.14;47.13;100437.09;5116227;27;97691;-80
2021/04/05 00:27:46;;;;;;;;;;;;;;;10.07;46.84;100417.97;5124887;27;96620;-80
2021/04/05 00:30:27;;;;;;;;;;;;;;;10.17;46.56;100418.53;5118814;27;96743;-79
2021/04/05 00:32:56;;;;;;;;;;;;;;;10.13;46.64;100424.81;5112949;27;98619;-80
2021/04/05 00:35:24;;;;;;;;;;;;;;;10.33;45.94;100414.34;5123189;27;96816;-79
2021/04/05 00:37:55;;;;;;;;;;;;;;;10.27;46.12;100406.69;5116674;27;96945;-81
2021/04/05 00:40:24;;;;;;;;;;;;;;;10.24;46.23;100388.34;5126460;27;97222;-79
2021/04/05 00:42:51;;;;;;;;;;;;;;;10.30;45.91;100388.94;5124119;27;101241;-80
2021/04/05 00:45:20;;;;;;;;;;;;;;;10.18;46.55;100375.34;5131971;27;97745;-79
2021/04/05 00:47:47;;;;;;;;;;;;;;;9.79;47.27;100357.47;5122269;27;96902;-79
2021/04/05 00:50:22;;;;;;;;;;;;;;;9.80;47.27;100348.63;5124628;27;96795;-81
2021/04/05 00:52:50;;;;;;;;;;;;;;;9.55;47.62;100338.16;5125801;27;98878;-81
2021/04/05 00:55:20;;;;;;;;;;;;;;;9.62;47.57;100338.78;5135635;27;97758;-80
2021/04/05 00:57:46;;;;;;;;;;;;;;;9.91;47.12;100332.41;5134042;27;96720;-79
2021/04/05 01:00:15;;;;;;;;;;;;;;;9.83;46.69;100329.19;5138456;27;96506;-81
2021/04/05 01:02:42;;;;;;;;;;;;;;;9.80;47.18;100313.47;5122533;27;98965;-81
2021/04/05 01:05:09;;;;;;;;;;;;;;;9.69;47.22;100310.41;5101405;27;97790;-81
2021/04/05 01:07:34;;;;;;;;;;;;;;;9.51;47.73;100306.69;5103236;27;96803;-80
2021/04/05 01:10:00;;;;;;;;;;;;;;;9.65;47.40;100309.63;5106455;27;96825;-80
2021/04/05 01:12:26;;;;;;;;;;;;;;;9.75;47.27;100308.38;5102116;27;101774;-81
2021/04/05 01:14:52;;;;;;;;;;;;;;;9.67;47.32;100299.91;5101273;27;97796;-81
2021/04/05 01:17:19;;;;;;;;;;;;;;;9.69;47.22;100292.78;5109420;27;96898;-81
2021/04/05 01:19:45;;;;;;;;;;;;;;;9.86;46.90;100271.88;5120876;27;97068;-80
2021/04/05 01:22:12;;;;;;;;;;;;;;;9.82;47.14;100256.22;5111148;27;99295;-80
2021/04/05 01:24:37;;;;;;;;;;;;;;;9.78;47.13;100255.47;5117382;27;98875;-80
2021/04/05 01:27:04;;;;;;;;;;;;;;;9.74;47.10;100243.34;5119569;27;97265;-80
2021/04/05 01:29:30;;;;;;;;;;;;;;;9.72;47.21;100237.25;5118589;27;97153;-80
2021/04/05 01:31:55;;;;;;;;;;;;;;;9.76;47.23;100228.31;5101676;27;99331;-80
2021/04/05 01:34:23;;;;;;;;;;;;;;;9.38;48.04;100216.66;5099429;27;98822;-79
2021/04/05 01:36:49;;;;;;;;;;;;;;;9.30;48.41;100209.94;5100458;27;97065;-79
2021/04/05 01:39:15;;;;;;;;;;;;;;;9.55;47.69;100205.41;5100233;27;96776;-81
2021/04/05 01:41:41;;;;;;;;;;;;;;;9.44;47.91;100202.38;5100279;27;98143;-81
2021/04/05 01:44:07;;;;;;;;;;;;;;;9.64;47.58;100193.66;5100347;27;100236;-78
2021/04/05 01:46:33;;;;;;;;;;;;;;;9.65;47.52;100185.66;5113000;27;96906;-81
2021/04/05 01:48:59;;;;;;;;;;;;;;;9.70;46.84;100167.88;5111215;27;97122;-80
2021/04/05 01:51:25;;;;;;;;;;;;;;;9.73;46.88;100157.19;5121361;27;99311;-80
2021/04/05 01:53:52;;;;;;;;;;;;;;;9.60;47.23;100151.56;5111544;27;97850;-81
2021/04/05 01:56:19;;;;;;;;;;;;;;;9.31;47.96;100148.41;5102554;27;96851;-80
2021/04/05 01:58:47;;;;;;;;;;;;;;;9.30;48.12;100147.53;5112674;27;96871;-80
2021/04/05 02:01:13;;;;;;;;;;;;;;;9.15;48.68;100127.91;5109032;27;101171;-79
2021/04/05 02:03:40;;;;;;;;;;;;;;;9.32;48.08;100118.47;5101691;27;98810;-80
2021/04/05 02:06:08;;;;;;;;;;;;;;;9.17;48.50;100102.34;5109235;27;96904;-79
2021/04/05 02:08:37;;;;;;;;;;;;;;;9.05;48.89;100097.56;5121431;27;96770;-79
2021/04/05 02:11:06;;;;;;;;;;;;;;;9.07;48.42;100085.16;5110024;27;98972;-79
2021/04/05 02:13:33;;;;;;;;;;;;;;;9.04;48.83;100077.41;5119580;27;98746;-79
2021/04/05 02:15:59;;;;;;;;;;;;;;;8.95;48.90;100080.38;5111337;27;97570;-80
2021/04/05 02:18:25;;;;;;;;;;;;;;;8.95;48.76;100069.84;5110553;27;96808;-78
2021/04/05 02:20:51;;;;;;;;;;;;;;;8.99;48.88;100071.44;5105514;27;99138;-80
2021/04/05 02:23:17;;;;;;;;;;;;;;;8.88;49.08;100071.00;5116602;27;98089;-80
2021/04/05 02:28:25;;;;;;;;;;;;;;;9.12;47.99;100042.84;5112478;27;96921;-80
2021/04/05 02:30:52;;;;;;;;;;;;;;;9.06;48.55;100022.81;5113032;27;98937;-80
2021/04/05 02:33:19;;;;;;;;;;;;;;;9.26;47.91;100019.38;5114597;27;101635;-81
2021/04/05 02:35:45;;;;;;;;;;;;;;;9.32;47.57;100011.19;5100720;27;96837;-80
2021/04/05 02:38:11;;;;;;;;;;;;;;;9.07;48.36;100007.88;5099609;27;96916;-80
2021/04/05 02:40:37;;;;;;;;;;;;;;;9.15;48.13;99997.88;5105973;27;100571;-80
2021/04/05 02:43:04;;;;;;;;;;;;;;;9.02;48.55;99991.41;5111973;27;98956;-80
2021/04/05 02:45:30;;;;;;;;;;;;;;;8.90;48.88;99982.22;5119671;27;96771;-80
2021/04/05 02:47:59;;;;;;;;;;;;;;;8.78;49.17;99972.19;5119410;27;96820;-80
2021/04/05 02:50:26;;;;;;;;;;;;;;;9.26;47.78;99965.78;5119387;27;99254;-79
2021/04/05 02:52:53;;;;;;;;;;;;;;;9.12;48.00;99947.94;5118281;27;99159;-79
2021/04/05 02:55:20;;;;;;;;;;;;;;;8.96;48.39;99944.22;5103455;27;97010;-79
2021/04/05 02:57:46;;;;;;;;;;;;;;;8.91;48.71;99940.94;5117073;27;96759;-80
2021/04/05 03:00:14;;;;;;;;;;;;;;;8.76;49.08;99931.88;5124069;27;98902;-80
2021/04/05 03:02:41;;;;;;;;;;;;;;;9.14;48.05;99925.84;5113429;27;99596;-80
2021/04/05 03:05:09;;;;;;;;;;;;;;;8.82;48.71;99923.72;5121676;27;96717;-79
2021/04/05 03:07:35;;;;;;;;;;;;;;;8.54;49.29;99909.94;5123120;27;96799;-78
2021/04/05 03:10:01;;;;;;;;;;;;;;;8.83;48.92;99907.00;5109563;27;98063;-79
2021/04/05 03:12:27;;;;;;;;;;;;;;;9.03;48.00;99907.00;5115375;27;97940;-79
2021/04/05 03:14:54;;;;;;;;;;;;;;;9.36;47.64;99909.13;5108213;27;97365;-79
2021/04/05 03:17:20;;;;;;;;;;;;;;;9.10;48.01;99904.97;5106958;27;96822;-79
2021/04/05 03:19:47;;;;;;;;;;;;;;;8.84;48.60;99906.06;5108529;27;97757;-79
2021/04/05 03:22:14;;;;;;;;;;;;;;;8.98;48.20;99892.31;5099283;27;99543;-80
2021/04/05 03:24:40;;;;;;;;;;;;;;;8.69;48.74;99888.25;5111002;27;96842;-79
2021/04/05 03:27:06;;;;;;;;;;;;;;;8.65;48.85;99881.41;5108550;27;96979;-79
2021/04/05 03:29:33;;;;;;;;;;;;;;;8.68;48.90;99878.66;5104464;27;99217;-79
2021/04/05 03:32:09;;;;;;;;;;;;;;;8.84;48.99;99857.78;5115433;27;101749;-79
2021/04/05 03:34:36;;;;;;;;;;;;;;;8.74;48.71;99847.63;5110208;27;98431;-79
2021/04/05 03:37:05;;;;;;;;;;;;;;;8.90;48.61;99860.16;5118198;27;96898;-80
2021/04/05 03:39:31;;;;;;;;;;;;;;;8.64;48.87;99853.38;5117070;27;99286;-80
2021/04/05 03:41:59;;;;;;;;;;;;;;;8.68;48.75;99863.69;5112152;27;99162;-79
2021/04/05 03:44:27;;;;;;;;;;;;;;;8.95;48.31;99856.41;5108885;27;96777;-79
2021/04/05 03:46:56;;;;;;;;;;;;;;;9.18;47.33;99852.81;5112358;27;96849;-79
2021/04/05 03:49:25;;;;;;;;;;;;;;;8.91;47.99;99831.13;5109332;27;96803;-78
2021/04/05 03:51:55;;;;;;;;;;;;;;;8.99;48.07;99826.34;5110186;27;98979;-79
2021/04/05 03:54:22;;;;;;;;;;;;;;;8.89;47.94;99827.69;5105152;27;96917;-79
2021/04/05 03:56:51;;;;;;;;;;;;;;;9.07;47.73;99828.66;5101064;27;96715;-79
2021/04/05 03:59:21;;;;;;;;;;;;;;;9.22;47.21;99820.09;5109796;27;98963;-79
2021/04/05 04:01:49;;;;;;;;;;;;;;;8.88;48.05;99804.03;5106799;27;98968;-80
2021/04/05 04:04:22;;;;;;;;;;;;;;;8.72;48.60;99801.22;5110485;27;96740;-78
2021/04/05 04:06:55;;;;;;;;;;;;;;;9.03;47.96;99803.38;5112374;27;96725;-80
2021/04/05 04:09:22;;;;;;;;;;;;;;;9.43;47.12;99799.81;5101361;27;100560;-80
2021/04/05 04:11:50;;;;;;;;;;;;;;;9.11;47.44;99793.38;5102347;27;98968;-80
2021/04/05 04:14:17;;;;;;;;;;;;;;;9.41;46.88;99801.66;5127254;27;97134;-80
2021/04/05 04:16:44;;;;;;;;;;;;;;;9.35;47.01;99789.63;5123934;27;96808;-81
2021/04/05 04:19:11;;;;;;;;;;;;;;;9.57;46.29;99774.53;5108522;27;100356;-80
2021/04/05 04:21:39;;;;;;;;;;;;;;;9.48;46.85;99768.81;5115012;27;98895;-79
2021/04/05 04:24:06;;;;;;;;;;;;;;;9.28;46.98;99759.19;5114691;27;97066;-79
2021/04/05 04:26:32;;;;;;;;;;;;;;;9.32;46.72;99752.00;5112584;27;96645;-80
2021/04/05 04:28:59;;;;;;;;;;;;;;;9.50;46.65;99754.66;5117793;27;98850;-80
2021/04/05 04:31:25;;;;;;;;;;;;;;;9.42;46.70;99750.66;5108685;27;99184;-80
2021/04/05 04:33:51;;;;;;;;;;;;;;;9.29;46.85;99739.81;5102947;27;96807;-80
2021/04/05 04:36:21;;;;;;;;;;;;;;;9.45;46.89;99735.53;5102808;27;96827;-80
2021/04/05 04:38:47;;;;;;;;;;;;;;;9.30;47.00;99724.84;5105697;27;98738;-80
2021/04/05 04:41:19;;;;;;;;;;;;;;;9.28;47.05;99718.78;5120740;27;98872;-80
2021/04/05 04:43:45;;;;;;;;;;;;;;;9.38;46.64;99725.38;5108735;27;96856;-80
2021/04/05 04:46:12;;;;;;;;;;;;;;;8.95;47.74;99716.78;5102209;27;96586;-80
2021/04/05 04:48:38;;;;;;;;;;;;;;;9.32;46.97;99713.28;5115067;27;97578;-79
2021/04/05 04:51:04;;;;;;;;;;;;;;;9.40;46.90;99720.84;5115684;27;99042;-80
2021/04/05 04:53:30;;;;;;;;;;;;;;;9.45;46.62;99708.31;5118058;27;97174;-80
2021/04/05 04:55:56;;;;;;;;;;;;;;;9.35;46.77;99692.06;5120420;27;96637;-80
2021/04/05 04:58:22;;;;;;;;;;;;;;;9.12;47.53;99693.13;5127678;27;100943;-79
2021/04/05 05:00:48;;;;;;;;;;;;;;;9.22;47.29;99692.72;5129370;27;97654;-80
2021/04/05 05:03:16;;;;;;;;;;;;;;;9.36;47.12;99687.66;5120231;27;97495;-80
2021/04/05 05:05:42;;;;;;;;;;;;;;;9.20;47.61;99683.09;5126055;27;96783;-80
2021/04/05 05:08:08;;;;;;;;;;;;;;;8.90;48.32;99681.88;5118241;27;97882;-80
2021/04/05 05:10:34;;;;;;;;;;;;;;;9.00;47.93;99669.97;5110887;27;98073;-80
2021/04/05 05:13:00;;;;;;;;;;;;;;;9.51;47.07;99660.56;5114282;27;96659;-79
2021/04/05 05:15:29;;;;;;;;;;;;;;;9.13;47.42;99655.31;5112524;27;96954;-79
2021/04/05 05:17:56;;;;;;;;;;;;;;;9.25;47.53;99658.31;5109791;27;98847;-80
2021/04/05 05:20:23;;;;;;;;;;;;;;;9.14;48.10;99646.47;5113149;27;98597;-79
2021/04/05 05:22:51;;;;;;;;;;;;;;;9.64;46.50;99635.31;5117413;27;97065;-80
2021/04/05 05:25:18;;;;;;;;;;;;;;;9.33;47.34;99616.59;5119174;27;96966;-79
2021/04/05 05:27:46;;;;;;;;;;;;;;;9.23;47.45;99602.16;5104730;27;98326;-79
2021/04/05 05:30:20;;;;;;;;;;;;;;;8.74;48.70;99586.88;5118792;27;99378;-79
2021/04/05 05:32:47;;;;;;;;;;;;;;;9.20;47.79;99593.47;5101698;27;96785;-80
2021/04/05 05:35:13;;;;;;;;;;;;;;;9.51;47.15;99589.38;5101055;27;96797;-79
2021/04/05 05:37:40;;;;;;;;;;;;;;;9.24;47.88;99598.63;5099970;27;99112;-80
2021/04/05 05:40:06;;;;;;;;;;;;;;;9.29;47.49;99594.81;5119231;27;101730;-79
2021/04/05 05:42:37;;;;;;;;;;;;;;;9.22;48.10;99589.91;5111262;27;96851;-80
2021/04/05 05:45:04;;;;;;;;;;;;;;;9.48;47.38;99574.53;5111577;27;96950;-80
2021/04/05 05:47:34;;;;;;;;;;;;;;;9.44;47.53;99580.03;5120091;27;102147;-80
2021/04/05 05:50:13;;;;;;;;;;;;;;;9.29;47.72;99581.66;5119334;27;98313;-80
2021/04/05 05:52:56;;;;;;;;;;;;;;;9.35;47.74;99588.41;5107159;27;97024;-80
2021/04/05 05:55:30;;;;;;;;;;;;;;;9.62;46.66;99599.38;5100020;27;96804;-80
2021/04/05 05:58:02;;;;;;;;;;;;;;;10.15;45.74;99592.22;5100278;27;98947;-80
2021/04/05 06:00:31;;;;;;;;;;;;;;;10.01;46.10;99570.97;5108529;27;98900;-80
2021/04/05 06:03:04;;;;;;;;;;;;;;;9.86;46.31;99569.97;5105489;27;97089;-81
2021/04/05 06:05:37;;;;;;;;;;;;;;;9.81;46.44;99563.22;5120419;27;96664;-81
2021/04/05 06:08:23;;;;;;;;;;;;;;;9.92;46.52;99564.38;5098875;27;99021;-81
2021/04/05 06:10:56;;;;;;;;;;;;;;;10.00;46.39;99559.56;5097504;27;97581;-80
2021/04/05 06:13:28;;;;;;;;;;;;;;;9.89;46.22;99540.81;5099198;27;96780;-80
2021/04/05 06:16:01;;;;;;;;;;;;;;;9.70;47.22;99544.47;5112112;27;97150;-80
2021/04/05 06:18:31;;;;;;;;;;;;;;;10.20;46.45;99533.94;5099056;27;98987;-80
2021/04/05 06:21:03;;;;;;;;;;;;;;;10.07;46.51;99519.66;5116886;27;100034;-80
2021/04/05 06:23:41;;;;;;;;;;;;;;;10.20;46.34;99526.03;5119363;27;97114;-80
2021/04/05 06:26:13;;;;;;;;;;;;;;;9.88;47.06;99523.25;5117469;27;96916;-80
2021/04/05 06:28:52;;;;;;;;;;;;;;;9.95;47.00;99511.44;5118928;27;99240;-79
2021/04/05 06:31:35;;;;;;;;;;;;;;;9.73;47.54;99502.94;5100491;27;97783;-80
2021/04/05 06:34:10;;;;;;;;;;;;;;;10.21;46.49;99493.41;5102918;27;96774;-80
2021/04/05 06:36:42;;;;;;;;;;;;;;;10.50;46.09;99478.63;5104473;27;96647;-79
2021/04/05 06:39:10;;;;;;;;;;;;;;;10.28;46.32;99455.19;5104702;27;99141;-81
2021/04/05 06:41:56;;;;;;;;;;;;;;;10.08;46.95;99473.84;5120514;27;99781;-79
2021/04/05 06:44:41;;;;;;;;;;;;;;;10.50;46.15;99458.34;5113122;27;96942;-80
2021/04/05 06:47:11;;;;;;;;;;;;;;;10.44;46.24;99445.47;5107546;27;98981;-81
2021/04/05 06:49:48;;;;;;;;;;;;;;;10.25;46.75;99457.97;5108950;27;99407;-80
2021/04/05 06:52:20;;;;;;;;;;;;;;;9.76;48.04;99454.44;5131995;27;98336;-80
2021/04/05 06:55:01;;;;;;;;;;;;;;;10.38;47.24;99437.88;5114557;27;96930;-80
2021/04/05 06:57:35;;;;;;;;;;;;;;;10.34;47.37;99444.28;5096016;27;96846;-79
2021/04/05 07:00:03;;;;;;;;;;;;;;;10.44;47.04;99442.81;5107421;27;100014;-80
2021/04/05 07:02:59;;;;;;;;;;;;;;;10.57;46.64;99427.16;5107442;27;98387;-79
2021/04/05 07:05:33;;;;;;;;;;;;;;;10.82;46.03;99416.06;5105811;27;97430;-81
2021/04/05 07:08:01;;;;;;;;;;;;;;;10.55;47.25;99416.69;5109470;27;97149;-80
2021/04/05 07:10:30;;;;;;;;;;;;;;;9.95;48.68;99418.25;5112664;27;98989;-80
2021/04/05 07:13:00;;;;;;;;;;;;;;;10.05;48.67;99408.03;5109278;27;100823;-80
2021/04/05 07:15:31;;;;;;;;;;;;;;;10.10;49.89;99416.56;5108116;27;96737;-81
2021/04/05 07:17:59;;;;;;;;;;;;;;;10.18;49.28;99420.50;5116910;27;96866;-81
2021/04/05 07:20:31;;;;;;;;;;;;;;;9.85;50.49;99402.03;5109804;27;99284;-80
2021/04/05 07:23:08;;;;;;;;;;;;;;;9.95;50.31;99399.78;5112850;27;97644;-80
2021/04/05 07:25:42;;;;;;;;;;;;;;;10.03;50.75;99404.63;5110656;27;96771;-82
2021/04/05 07:28:15;;;;;;;;;;;;;;;10.33;50.03;99395.91;5112588;27;97014;-81
2021/04/05 07:30:43;;;;;;;;;;;;;;;10.54;50.29;99395.63;5115561;27;100676;-80
2021/04/05 07:33:17;;;;;;;;;;;;;;;10.49;50.26;99397.69;5114061;27;97934;-80
2021/04/05 07:35:51;;;;;;;;;;;;;;;10.63;49.91;99390.66;5112682;27;96726;-80
2021/04/05 07:38:21;;;;;;;;;;;;;;;10.36;50.49;99395.75;5115269;27;96796;-79
2021/04/05 07:40:51;;;;;;;;;;;;;;;10.71;49.82;99384.94;5123938;27;100118;-80
2021/04/05 07:43:21;;;;;;;;;;;;;;;9.88;51.97;99388.69;5114621;27;99939;-80
2021/04/05 07:46:05;;;;;;;;;;;;;;;10.25;51.74;99389.34;5125903;27;96999;-81
2021/04/05 07:48:39;;;;;;;;;;;;;;;10.41;50.88;99386.72;5118645;27;96790;-83
2021/04/05 07:51:08;;;;;;;;;;;;;;;10.50;51.23;99392.31;5119792;27;99206;-79
2021/04/05 07:53:41;;;;;;;;;;;;;;;10.41;51.46;99392.00;5112309;27;98519;-82
2021/04/05 07:56:08;;;;;;;;;;;;;;;10.50;51.96;99394.13;5109767;27;96725;-80
2021/04/05 07:58:49;;;;;;;;;;;;;;;10.89;51.21;99394.50;5110440;27;97308;-80
2021/04/05 08:01:18;;;;;;;;;;;;;;;10.70;51.94;99388.53;5112915;27;99368;-81
2021/04/05 08:04:00;;;;;;;;;;;;;;;10.54;52.27;99380.66;5117937;27;99896;-80
2021/04/05 08:06:33;;;;;;;;;;;;;;;9.63;54.67;99383.03;5124399;27;96683;-79
2021/04/05 08:09:01;;;;;;;;;;;;;;;9.97;55.20;99385.56;5124783;27;97012;-81
2021/04/05 08:11:46;;;;;;;;;;;;;;;9.88;55.95;99386.06;5098174;27;99038;-81
2021/04/05 08:14:28;;;;;;;;;;;;;;;10.32;54.63;99390.69;5111601;27;99204;-81
2021/04/05 08:17:00;;;;;;;;;;;;;;;10.23;55.60;99396.50;5112261;27;97296;-80
2021/04/05 08:19:37;;;;;;;;;;;;;;;10.00;56.39;99395.94;5112462;27;96935;-80
2021/04/05 08:22:08;;;;;;;;;;;;;;;10.01;56.65;99391.53;5118701;27;99323;-80
2021/04/05 08:24:39;;;;;;;;;;;;;;;10.22;56.43;99400.94;5124417;27;101272;-81
2021/04/05 08:27:09;;;;;;;;;;;;;;;10.04;56.81;99385.22;5121616;27;96789;-79
2021/04/05 08:29:41;;;;;;;;;;;;;;;10.36;56.36;99393.09;5110796;27;96754;-80
2021/04/05 08:32:17;;;;;;;;;;;;;;;10.17;57.03;99396.84;5106769;27;101142;-80
2021/04/05 08:34:51;;;;;;;;;;;;;;;10.18;57.75;99395.88;5110956;27;100361;-81
2021/04/05 08:37:23;;;;;;;;;;;;;;;10.12;57.05;99404.13;5113740;27;96771;-80
2021/04/05 08:39:57;;;;;;;;;;;;;;;9.94;58.22;99398.91;5121383;27;97857;-80
2021/04/05 08:42:29;;;;;;;;;;;;;;;9.88;58.83;99390.47;5125570;27;99791;-79
2021/04/05 08:45:01;;;;;;;;;;;;;;;9.95;58.20;99391.84;5123226;27;100460;-81
2021/04/05 08:47:30;;;;;;;;;;;;;;;9.86;58.33;99387.91;5129781;27;97914;-81
2021/04/05 08:53:44;;;;;;;;;;;;;;;9.51;60.38;99379.28;5127605;27;97759;-80
2021/04/05 08:56:12;;;;;;;;;;;;;;;10.17;58.06;99365.19;5096890;27;100025;-79
2021/04/05 08:58:45;;;;;;;;;;;;;;;9.63;59.85;99377.75;5120009;27;96717;-79
2021/04/05 09:01:16;;;;;;;;;;;;;;;10.00;58.10;99379.25;5116143;27;97175;-80
2021/04/05 09:03:44;;;;;;;;;;;;;;;10.13;58.30;99371.50;5117669;27;99940;-82
2021/04/05 09:06:13;;;;;;;;;;;;;;;9.98;58.58;99375.84;5128282;27;101631;-82
2021/04/05 09:08:40;;;;;;;;;;;;;;;9.70;58.89;99376.50;5121926;27;97315;-81
2021/04/05 09:11:06;;;;;;;;;;;;;;;9.84;59.38;99383.69;5122637;27;96949;-83
2021/04/05 09:13:35;;;;;;;;;;;;;;;9.80;59.28;99392.66;5121643;27;98975;-82
2021/04/05 09:16:19;;;;;;;;;;;;;;;10.23;58.23;99392.09;5127410;27;98630;-81
2021/04/05 09:18:59;;;;;;;;;;;;;;;10.11;58.44;99392.69;5125132;27;96817;-80
2021/04/05 09:21:38;;;;;;;;;;;;;;;10.04;59.42;99401.91;5124453;27;96765;-81
2021/04/05 09:24:20;;;;;;;;;;;;;;;10.22;58.97;99434.41;5121309;27;100355;-82
2021/04/05 09:27:00;;;;;;;;;;;;;;;9.24;59.55;99457.13;5121190;27;98195;-82
2021/04/05 09:29:34;;;;;;;;;;;;;;;8.87;60.39;99458.09;5118794;27;98210;-81
2021/04/05 09:32:20;;;;;;;;;;;;;;;9.46;58.76;99470.06;5118476;27;96915;-82
2021/04/05 09:35:02;;;;;;;;;;;;;;;9.02;58.68;99473.16;5108052;27;97850;-80
2021/04/05 09:37:43;;;;;;;;;;;;;;;9.21;57.77;99470.44;5111578;27;99630;-81
2021/04/05 09:40:33;;;;;;;;;;;;;;;9.79;55.99;99470.09;5114872;27;96799;-80
2021/04/05 09:43:08;;;;;;;;;;;;;;;9.88;55.77;99473.13;5096497;27;97252;-79
2021/04/05 09:45:41;;;;;;;;;;;;;;;9.64;55.58;99471.78;5118073;27;97707;-80
2021/04/05 09:48:16;;;;;;;;;;;;;;;9.23;56.50;99476.50;5112209;27;97703;-80
2021/04/05 09:50:59;;;;;;;;;;;;;;;8.47;57.62;99477.56;5108721;27;97082;-80
2021/04/05 09:53:32;;;;;;;;;;;;;;;8.54;58.51;99479.00;5115057;27;96823;-81
2021/04/05 09:56:00;;;;;;;;;;;;;;;8.52;58.31;99507.19;5120702;27;100887;-82
2021/04/05 09:58:28;;;;;;;;;;;;;;;8.64;57.48;99503.97;5117281;27;99332;-83
2021/04/05 10:00:55;;;;;;;;;;;;;;;9.71;55.43;99507.47;5110594;27;97095;-82
2021/04/05 10:03:21;;;;;;;;;;;;;;;9.07;55.21;99505.38;5110324;27;97079;-80
2021/04/05 10:05:49;;;;;;;;;;;;;;;9.00;56.10;99501.34;5103213;27;98115;-82
2021/04/05 10:08:22;;;;;;;;;;;;;;;9.22;55.83;99500.31;5106442;27;99806;-82
2021/04/05 10:10:48;;;;;;;;;;;;;;;9.58;55.04;99488.75;5105022;27;96846;-81
2021/04/05 10:13:14;;;;;;;;;;;;;;;9.41;54.07;99474.72;5109614;27;97267;-79
2021/04/05 10:15:43;;;;;;;;;;;;;;;9.67;53.95;99473.38;5112032;27;100588;-81
2021/04/05 10:18:12;;;;;;;;;;;;;;;10.02;53.03;99464.47;5116109;27;101518;-80
2021/04/05 10:20:38;;;;;;;;;;;;;;;10.28;52.54;99457.81;5117462;27;97452;-83
2021/04/05 10:23:07;;;;;;;;;;;;;;;10.42;51.94;99449.16;5108761;27;98177;-80
2021/04/05 10:25:37;;;;;;;;;;;;;;;9.94;51.88;99459.59;5120113;27;100662;-79
2021/04/05 10:28:04;;;;;;;;;;;;;;;9.70;52.08;99470.59;5113384;27;98861;-81
2021/04/05 10:30:33;;;;;;;;;;;;;;;10.62;50.78;99484.09;5115976;27;97029;-81
2021/04/05 10:33:01;;;;;;;;;;;;;;;10.45;50.75;99491.22;5107304;27;96933;-81
2021/04/05 10:35:28;;;;;;;;;;;;;;;10.63;50.61;99483.13;5109496;27;99619;-82
2021/04/05 10:37:57;;;;;;;;;;;;;;;9.86;51.77;99482.03;5114503;27;99035;-81
2021/04/05 10:40:24;;;;;;;;;;;;;;;10.20;52.09;99467.94;5115934;27;96837;-81
2021/04/05 10:42:53;;;;;;;;;;;;;;;10.19;51.13;99464.44;5124768;27;97009;-81
2021/04/05 10:45:22;;;;;;;;;;;;;;;10.52;50.78;99471.47;5123360;27;97532;-81
2021/04/05 10:47:51;;;;;;;;;;;;;;;10.94;50.34;99466.41;5124431;27;97281;-80
2021/04/05 10:50:27;;;;;;;;;;;;;;;10.71;50.10;99462.44;5111137;27;97080;-81
2021/04/05 10:52:54;;;;;;;;;;;;;;;10.82;49.55;99463.63;5114614;27;96738;-80
2021/04/05 10:55:23;;;;;;;;;;;;;;;10.31;50.27;99469.06;5110069;27;98057;-81
2021/04/05 10:57:55;;;;;;;;;;;;;;;9.89;51.89;99479.25;5111163;27;97964;-81
2021/04/05 11:00:23;;;;;;;;;;;;;;;9.87;50.94;99473.19;5116565;27;96781;-81
2021/04/05 11:02:55;;;;;;;;;;;;;;;10.18;49.97;99472.44;5123510;27;97074;-83
2021/04/05 11:05:22;;;;;;;;;;;;;;;10.00;49.84;99472.47;5124361;27;98135;-82
2021/04/05 11:07:57;;;;;;;;;;;;;;;10.25;49.62;99479.09;5119226;27;99031;-81
2021/04/05 11:10:29;;;;;;;;;;;;;;;10.22;49.39;99476.63;5122531;27;104010;-80
2021/04/05 11:12:57;;;;;;;;;;;;;;;10.83;48.29;99478.56;5108944;27;96753;-80
2021/04/05 11:15:24;;;;;;;;;;;;;;;10.24;49.78;99480.88;5114334;27;99733;-79
2021/04/05 11:17:52;;;;;;;;;;;;;;;10.31;49.14;99476.97;5115941;27;97684;-80
2021/04/05 11:20:24;;;;;;;;;;;;;;;9.19;51.42;99491.59;5102815;27;98227;-80
2021/04/05 11:23:08;;;;;;;;;;;;;;;9.53;50.25;99495.19;5108684;27;96856;-81
2021/04/05 11:25:35;;;;;;;;;;;;;;;9.71;49.85;99496.91;5108681;27;101241;-81
2021/04/05 11:28:08;;;;;;;;;;;;;;;10.18;48.75;99488.28;5111575;27;100532;-80
2021/04/05 11:30:36;;;;;;;;;;;;;;;10.85;46.57;99489.88;5115072;27;97108;-80
2021/04/05 11:33:02;;;;;;;;;;;;;;;10.97;45.29;99490.03;5113092;27;97092;-80
2021/04/05 11:35:32;;;;;;;;;;;;;;;10.58;45.40;99492.25;5109641;27;100596;-80
2021/04/05 11:38:00;;;;;;;;;;;;;;;10.87;44.03;99494.13;5105540;27;98833;-81
2021/04/05 11:40:30;;;;;;;;;;;;;;;10.29;44.04;99510.56;5115934;27;97929;-80
2021/04/05 11:42:58;;;;;;;;;;;;;;;10.89;43.21;99501.97;5109548;27;97243;-81
2021/04/05 11:45:41;;;;;;;;;;;;;;;11.37;41.13;99493.88;5108873;27;97592;-79
2021/04/05 11:48:11;;;;;;;;;;;;;;;10.72;42.72;99514.34;5111472;27;97692;-80
2021/04/05 11:50:42;;;;;;;;;;;;;;;10.29;42.75;99523.75;5104823;27;97039;-80
2021/04/05 11:53:09;;;;;;;;;;;;;;;10.04;43.73;99509.28;5109360;27;97014;-81
2021/04/05 11:55:38;;;;;;;;;;;;;;;10.06;44.13;99523.22;5113103;27;100244;-80
2021/04/05 11:58:06;;;;;;;;;;;;;;;9.30;45.22;99537.69;5105052;27;98856;-80
2021/04/05 12:00:37;;;;;;;;;;;;;;;8.08;50.98;99587.25;5109134;27;96914;-81
2021/04/05 12:03:12;;;;;;;;;;;;;;;6.94;58.73;99584.13;5107047;27;100014;-81
2021/04/05 12:05:39;;;;;;;;;;;;;;;7.06;58.72;99596.75;5109643;27;100959;-81
2021/04/05 12:08:14;;;;;;;;;;;;;;;5.97;61.51;99613.03;5112586;27;100530;-86
2021/04/05 12:10:43;;;;;;;;;;;;;;;6.31;61.52;99614.47;5118291;27;97271;-85
2021/04/05 12:13:14;;;;;;;;;;;;;;;6.86;59.69;99596.69;5118914;27;96857;-84
2021/04/05 12:15:42;;;;;;;;;;;;;;;7.53;57.96;99606.22;5121232;27;100983;-86
2021/04/05 12:18:22;;;;;;;;;;;;;;;8.01;56.04;99607.69;5122551;27;100169;-85
2021/04/05 12:20:58;;;;;;;;;;;;;;;8.52;53.97;99590.59;5115670;27;97324;-84
2021/04/05 12:23:26;;;;;;;;;;;;;;;8.49;53.40;99585.44;5121758;27;98136;-84
2021/04/05 12:25:54;;;;;;;;;;;;;;;9.98;49.49;99587.81;5122581;27;98185;-83
2021/04/05 12:28:21;;;;;;;;;;;;;;;10.53;48.34;99610.50;5100742;27;99185;-85
2021/04/05 12:30:48;;;;;;;;;;;;;;;10.79;46.49;99621.41;5111983;27;96800;-84
2021/04/05 12:33:16;;;;;;;;;;;;;;;10.83;45.95;99613.31;5108295;27;97783;-84
2021/04/05 12:35:43;;;;;;;;;;;;;;;10.68;46.24;99605.28;5118063;27;97845;-82
2021/04/05 12:38:11;;;;;;;;;;;;;;;10.02;47.24;99604.34;5114340;27;100553;-86
2021/04/05 12:40:37;;;;;;;;;;;;;;;9.77;46.48;99620.59;5126991;27;96687;-85
2021/04/05 12:43:05;;;;;;;;;;;;;;;8.93;46.86;99607.94;5125537;27;96695;-86
2021/04/05 12:45:33;;;;;;;;;;;;;;;9.12;47.35;99611.44;5120221;27;96536;-85
2021/04/05 12:47:59;;;;;;;;;;;;;;;9.14;47.15;99620.13;5126522;27;97939;-85
2021/04/05 12:50:26;;;;;;;;;;;;;;;9.89;46.45;99634.94;5124991;27;96723;-83
2021/04/05 12:52:57;;;;;;;;;;;;;;;8.77;47.85;99623.63;5125195;27;96756;-83
2021/04/05 12:55:24;;;;;;;;;;;;;;;8.78;49.48;99627.97;5128659;27;99673;-83
2021/04/05 12:57:54;;;;;;;;;;;;;;;8.50;49.38;99624.00;5114451;27;100059;-83
2021/04/05 13:00:22;;;;;;;;;;;;;;;8.44;49.17;99629.56;5122716;27;97141;-82
2021/04/05 13:02:56;;;;;;;;;;;;;;;9.52;46.89;99615.63;5115848;27;97106;-83
2021/04/05 13:05:26;;;;;;;;;;;;;;;9.73;45.01;99619.00;5113555;27;99157;-83
2021/04/05 13:07:57;;;;;;;;;;;;;;;10.16;44.52;99616.84;5109817;27;98074;-83
2021/04/05 13:10:26;;;;;;;;;;;;;;;10.47;43.27;99606.41;5125513;27;97097;-85